createdAt,value
2022-12-18T00:00:26.523Z,91.82
2022-12-18T00:03:28.983Z,91.65
2022-12-18T00:06:31.389Z,92.37
2022-12-18T00:09:40.000Z,91.95
2022-12-18T00:12:42.652Z,91.52
2022-12-18T00:15:45.117Z,92.33
2022-12-18T00:18:49.289Z,92.01
2022-12-18T00:21:51.855Z,90.32
2022-12-18T00:24:53.987Z,90.51
2022-12-18T00:27:56.580Z,90.42
2022-12-18T00:31:03.312Z,90.04
2022-12-18T00:34:05.832Z,90.67
2022-12-18T00:37:08.086Z,90.09
2022-12-18T00:40:11.238Z,90.51
2022-12-18T00:43:13.339Z,90.91
2022-12-18T00:46:15.696Z,90.39
2022-12-18T00:49:20.205Z,90.52
2022-12-18T00:52:22.951Z,89.68
2022-12-18T00:55:25.127Z,90.53
2022-12-18T00:58:27.536Z,91.53
2022-12-18T01:01:29.846Z,90.82
2022-12-18T01:04:33.500Z,92.26
2022-12-18T01:07:36.225Z,93.08
2022-12-18T01:10:42.426Z,93.19
2022-12-18T01:13:44.971Z,93.19
2022-12-18T01:16:47.444Z,92.55
2022-12-18T01:19:49.779Z,92.50
2022-12-18T01:22:52.199Z,93.16
2022-12-18T01:25:54.467Z,92.29
2022-12-18T01:28:57.727Z,92.18
2022-12-18T01:32:00.019Z,91.52
2022-12-18T01:35:02.691Z,91.19
2022-12-18T01:38:04.766Z,90.81
2022-12-18T01:41:09.250Z,91.36
2022-12-18T01:44:48.687Z,90.97
2022-12-18T01:47:55.772Z,90.68
2022-12-18T01:50:57.945Z,91.74
2022-12-18T01:54:00.809Z,91.54
2022-12-18T01:57:03.193Z,90.88
2022-12-18T02:00:11.896Z,91.66
2022-12-18T02:03:15.144Z,91.51
2022-12-18T02:06:33.209Z,92.66
2022-12-18T02:09:45.484Z,93.22
2022-12-18T02:13:12.035Z,92.87
2022-12-18T02:16:20.461Z,93.40
2022-12-18T02:19:48.239Z,92.68
2022-12-18T02:23:11.868Z,92.82
2022-12-18T02:26:22.962Z,91.88
2022-12-18T02:29:57.936Z,91.86
2022-12-18T02:33:03.353Z,91.07
2022-12-18T02:36:06.786Z,90.89
2022-12-18T02:39:12.656Z,92.09
2022-12-18T02:42:17.232Z,91.85
2022-12-18T02:45:19.800Z,93.09
2022-12-18T02:48:29.345Z,93.25
2022-12-18T02:51:44.471Z,93.13
2022-12-18T02:55:18.553Z,92.57
2022-12-18T02:58:30.878Z,92.16
2022-12-18T03:01:48.575Z,92.88
2022-12-18T03:05:03.936Z,93.55
2022-12-18T03:08:13.644Z,94.48
2022-12-18T03:11:16.473Z,93.28
2022-12-18T03:14:22.337Z,92.17
2022-12-18T03:17:28.217Z,91.62
2022-12-18T03:20:35.043Z,92.18
2022-12-18T03:23:44.897Z,91.78
2022-12-18T03:26:53.224Z,92.75
2022-12-18T03:30:08.755Z,92.23
2022-12-18T03:33:28.456Z,91.45
2022-12-18T03:36:31.210Z,91.25
2022-12-18T03:39:35.713Z,90.97
2022-12-18T03:42:56.667Z,93.04
2022-12-18T03:46:09.104Z,93.10
2022-12-18T03:49:26.733Z,93.90
2022-12-18T03:52:46.268Z,95.17
2022-12-18T03:55:51.095Z,95.66
2022-12-18T03:58:55.279Z,96.09
2022-12-18T04:02:00.787Z,97.37
2022-12-18T04:05:06.964Z,97.06
2022-12-18T04:08:10.090Z,97.47
2022-12-18T04:11:13.423Z,98.90
2022-12-18T04:14:18.245Z,99.28
2022-12-18T04:17:23.396Z,99.95
2022-12-18T04:20:25.460Z,100.00
2022-12-18T04:23:29.288Z,100.00
2022-12-18T04:26:32.020Z,100.00
2022-12-18T04:29:35.638Z,100.00
2022-12-18T04:32:37.816Z,100.00
2022-12-18T04:35:42.630Z,100.00
2022-12-18T04:38:44.926Z,100.00
2022-12-18T04:41:47.769Z,100.00
2022-12-18T04:44:49.946Z,100.00
2022-12-18T04:47:52.344Z,100.00
2022-12-18T04:50:54.426Z,100.00
2022-12-18T04:53:56.945Z,100.00
2022-12-18T04:56:59.131Z,100.00
2022-12-18T05:00:02.438Z,100.00
2022-12-18T05:03:04.747Z,100.00
2022-12-18T05:06:08.250Z,100.00
2022-12-18T05:09:10.358Z,100.00
2022-12-18T05:12:12.777Z,100.00
2022-12-18T05:15:14.913Z,100.00
2022-12-18T05:18:17.340Z,100.00
2022-12-18T05:21:19.448Z,100.00
2022-12-18T05:24:21.860Z,100.00
2022-12-18T05:27:24.034Z,100.00
2022-12-18T05:30:26.543Z,100.00
2022-12-18T05:33:31.998Z,100.00
2022-12-18T05:36:34.391Z,100.00
2022-12-18T05:39:36.489Z,100.00
2022-12-18T05:42:38.951Z,100.00
2022-12-18T05:45:42.234Z,100.00
2022-12-18T05:48:46.027Z,100.00
2022-12-18T05:51:48.264Z,100.00
2022-12-18T05:54:50.724Z,100.00
2022-12-18T05:57:52.877Z,100.00
2022-12-18T06:00:55.364Z,100.00
2022-12-18T06:03:57.870Z,100.00
2022-12-18T06:07:00.192Z,100.00
2022-12-18T06:10:02.857Z,100.00
2022-12-18T06:13:05.639Z,100.00
2022-12-18T06:16:09.179Z,100.00
2022-12-18T06:19:16.504Z,100.00
2022-12-18T06:22:19.182Z,100.00
2022-12-18T06:25:21.394Z,100.00
2022-12-18T06:28:23.905Z,100.00
2022-12-18T06:31:26.526Z,100.00
2022-12-18T06:34:29.037Z,100.00
2022-12-18T06:37:33.940Z,100.00
2022-12-18T06:40:39.988Z,100.00
2022-12-18T06:43:43.011Z,100.00
2022-12-18T06:46:45.701Z,100.00
2022-12-18T06:49:47.783Z,100.00
2022-12-18T06:52:50.172Z,100.00
2022-12-18T06:55:52.368Z,100.00
2022-12-18T06:58:54.909Z,100.00
2022-12-18T07:01:57.222Z,100.00
2022-12-18T07:04:59.845Z,100.00
2022-12-18T07:08:01.968Z,100.00
2022-12-18T07:11:05.899Z,100.00
2022-12-18T07:14:07.979Z,100.00
2022-12-18T07:17:10.547Z,100.00
2022-12-18T07:20:12.699Z,100.00
2022-12-18T07:23:15.180Z,100.00
2022-12-18T07:26:20.623Z,100.00
2022-12-18T07:29:23.077Z,100.00
2022-12-18T07:32:25.236Z,100.00
2022-12-18T07:35:27.682Z,100.00
2022-12-18T07:38:30.141Z,100.00
2022-12-18T07:41:33.815Z,99.97
2022-12-18T07:44:40.380Z,99.26
2022-12-18T07:47:42.793Z,99.49
2022-12-18T07:50:44.905Z,98.90
2022-12-18T07:53:49.449Z,97.81
2022-12-18T07:56:54.490Z,98.04
2022-12-18T07:59:56.927Z,97.33
2022-12-18T08:02:59.226Z,97.84
2022-12-18T08:06:07.592Z,97.27
2022-12-18T08:09:11.109Z,95.34
2022-12-18T08:12:13.481Z,94.63
2022-12-18T08:15:15.731Z,94.35
2022-12-18T08:18:18.095Z,93.62
2022-12-18T08:21:24.116Z,93.11
2022-12-18T08:24:26.704Z,92.96
2022-12-18T08:27:29.899Z,92.60
2022-12-18T08:30:32.830Z,94.80
2022-12-18T08:33:36.367Z,93.11
2022-12-18T08:36:38.874Z,92.67
2022-12-18T08:39:40.969Z,91.49
2022-12-18T08:43:02.056Z,91.86
2022-12-18T08:46:04.331Z,90.65
2022-12-18T08:49:08.219Z,89.93
2022-12-18T08:52:10.251Z,89.03
2022-12-18T08:55:12.614Z,89.16
2022-12-18T08:58:14.732Z,89.26
2022-12-18T09:01:17.396Z,88.49
2022-12-18T09:04:19.643Z,87.99
2022-12-18T09:07:22.037Z,87.41
2022-12-18T09:10:24.190Z,86.68
2022-12-18T09:13:26.698Z,85.99
2022-12-18T09:16:32.235Z,86.79
2022-12-18T09:19:35.281Z,86.17
2022-12-18T09:22:37.397Z,83.30
2022-12-18T09:25:40.523Z,76.47
2022-12-18T09:28:44.069Z,71.83
2022-12-18T09:31:46.547Z,71.02
2022-12-18T09:34:48.707Z,70.33
2022-12-18T09:37:51.176Z,68.26
2022-12-18T09:40:58.548Z,67.83
2022-12-18T09:44:06.745Z,68.24
2022-12-18T09:47:16.006Z,69.07
2022-12-18T09:50:33.657Z,70.59
2022-12-18T09:53:42.602Z,72.74
2022-12-18T09:56:45.284Z,72.42
2022-12-18T09:59:52.926Z,72.50
2022-12-18T10:03:02.561Z,73.71
2022-12-18T10:06:08.095Z,73.16
2022-12-18T10:09:23.438Z,72.86
2022-12-18T10:12:38.766Z,70.05
2022-12-18T10:16:13.881Z,66.98
2022-12-18T10:19:24.001Z,66.51
2022-12-18T10:22:44.685Z,68.15
2022-12-18T10:26:01.388Z,72.25
2022-12-18T10:29:12.051Z,72.28
2022-12-18T10:32:18.105Z,73.20
2022-12-18T10:35:26.721Z,75.72
2022-12-18T10:38:32.637Z,75.72
2022-12-18T10:41:34.859Z,75.30
2022-12-18T10:44:37.276Z,76.71
2022-12-18T10:47:57.490Z,76.27
2022-12-18T10:51:10.813Z,76.77
2022-12-18T10:54:24.928Z,76.75
2022-12-18T10:57:27.246Z,75.99
2022-12-18T11:00:31.634Z,76.30
2022-12-18T11:03:45.397Z,77.34
2022-12-18T11:07:14.127Z,77.00
2022-12-18T11:10:21.704Z,76.53
2022-12-18T11:13:27.163Z,75.37
2022-12-18T11:16:32.152Z,75.57
2022-12-18T11:19:40.646Z,74.92
2022-12-18T11:22:43.518Z,75.31
2022-12-18T11:25:54.628Z,75.42
2022-12-18T11:29:11.888Z,74.65
2022-12-18T11:32:38.097Z,74.27
2022-12-18T11:35:40.445Z,73.16
2022-12-18T11:38:45.590Z,72.72
2022-12-18T11:42:10.664Z,69.17
2022-12-18T11:45:14.126Z,58.66
2022-12-18T11:48:26.480Z,53.16
2022-12-18T11:51:44.409Z,47.87
2022-12-18T11:54:46.825Z,45.57
2022-12-18T11:58:02.773Z,43.04
2022-12-18T12:01:23.600Z,42.93
2022-12-18T12:04:49.977Z,40.15
2022-12-18T12:08:01.141Z,38.16
2022-12-18T12:11:34.498Z,39.13
2022-12-18T12:14:56.345Z,45.00
2022-12-18T12:19:01.344Z,51.05
2022-12-18T12:22:17.854Z,53.36
2022-12-18T12:25:30.456Z,54.75
2022-12-18T12:28:58.628Z,56.80
2022-12-18T12:32:13.494Z,58.44
2022-12-18T12:35:43.284Z,59.90
2022-12-18T12:38:52.345Z,59.82
2022-12-18T12:42:13.812Z,58.62
2022-12-18T12:45:27.442Z,58.14
2022-12-18T12:48:39.082Z,55.83
2022-12-18T12:51:46.147Z,56.03
2022-12-18T12:54:50.765Z,58.55
2022-12-18T12:58:06.655Z,59.33
2022-12-18T13:01:27.663Z,59.91
2022-12-18T13:04:33.148Z,60.37
2022-12-18T13:07:41.344Z,60.08
2022-12-18T13:10:43.863Z,59.79
2022-12-18T13:13:50.634Z,60.16
2022-12-18T13:17:16.633Z,61.42
2022-12-18T13:20:18.878Z,62.21
2022-12-18T13:23:21.222Z,63.60
2022-12-18T13:26:28.764Z,63.40
2022-12-18T13:29:47.429Z,62.55
2022-12-18T13:33:15.413Z,61.85
2022-12-18T13:36:29.094Z,61.47
2022-12-18T13:43:14.127Z,61.66
2022-12-18T13:46:22.108Z,61.81
2022-12-18T13:49:40.692Z,62.11
2022-12-18T13:52:44.628Z,63.01
2022-12-18T13:55:47.242Z,64.95
2022-12-18T13:59:24.762Z,66.11
2022-12-18T14:02:29.665Z,67.06
2022-12-18T14:05:36.537Z,66.74
2022-12-18T14:08:44.126Z,67.76
2022-12-18T14:11:50.292Z,68.18
2022-12-18T14:14:54.918Z,68.01
2022-12-18T14:18:14.279Z,68.36
2022-12-18T14:21:30.881Z,68.72
2022-12-18T14:24:33.829Z,69.35
2022-12-18T14:27:39.013Z,69.63
2022-12-18T14:30:46.953Z,70.05
2022-12-18T14:33:49.472Z,71.14
2022-12-18T14:36:56.848Z,71.86
2022-12-18T14:40:11.347Z,71.89
2022-12-18T14:43:14.575Z,72.23
2022-12-18T14:46:34.107Z,74.62
2022-12-18T14:49:38.085Z,74.87
2022-12-18T14:52:40.198Z,76.15
2022-12-18T14:55:49.428Z,77.68
2022-12-18T14:58:59.057Z,77.34
2022-12-18T15:02:35.601Z,78.74
2022-12-18T15:05:37.893Z,80.04
2022-12-18T15:08:40.538Z,79.74
2022-12-18T15:11:42.739Z,80.98
2022-12-18T15:14:45.156Z,82.08
2022-12-18T15:17:47.291Z,81.69
2022-12-18T15:21:08.154Z,83.21
2022-12-18T15:24:20.165Z,83.02
2022-12-18T15:27:36.677Z,83.56
2022-12-18T15:30:38.926Z,83.84
2022-12-18T15:34:15.364Z,84.48
2022-12-18T15:37:17.545Z,86.69
2022-12-18T15:40:24.928Z,86.48
2022-12-18T15:43:34.974Z,87.58
2022-12-18T15:46:37.466Z,88.04
2022-12-18T15:49:40.550Z,88.75
2022-12-18T15:52:46.115Z,89.87
2022-12-18T15:56:06.836Z,91.75
2022-12-18T15:59:15.024Z,93.32
2022-12-18T16:02:19.339Z,92.70
2022-12-18T16:05:23.903Z,93.38
2022-12-18T16:08:25.990Z,92.45
2022-12-18T16:11:39.614Z,91.88
2022-12-18T16:14:41.772Z,94.11
2022-12-18T16:17:45.243Z,93.63
2022-12-18T16:20:49.581Z,94.60
2022-12-18T16:23:52.017Z,94.92
2022-12-18T16:26:55.150Z,96.01
2022-12-18T16:29:57.695Z,96.31
2022-12-18T16:33:00.720Z,97.57
2022-12-18T16:36:03.326Z,98.44
2022-12-18T16:39:05.451Z,99.40
2022-12-18T16:42:17.876Z,100.00
2022-12-18T16:45:20.117Z,100.00
2022-12-18T16:48:22.568Z,100.00
2022-12-18T16:51:25.150Z,100.00
2022-12-18T16:54:30.401Z,100.00
2022-12-18T16:57:32.628Z,100.00
2022-12-18T17:00:35.041Z,100.00
2022-12-18T17:03:37.802Z,100.00
2022-12-18T17:06:43.070Z,100.00
2022-12-18T17:09:46.227Z,100.00
2022-12-18T17:12:51.148Z,100.00
2022-12-18T17:15:53.879Z,100.00
2022-12-18T17:18:56.276Z,100.00
2022-12-18T17:21:58.468Z,100.00
2022-12-18T17:25:00.899Z,100.00
2022-12-18T17:28:03.016Z,100.00
2022-12-18T17:31:14.322Z,100.00
2022-12-18T17:34:16.569Z,100.00
2022-12-18T17:37:18.986Z,100.00
2022-12-18T17:40:21.193Z,100.00
2022-12-18T17:43:23.586Z,100.00
2022-12-18T17:46:27.423Z,100.00
2022-12-18T17:49:29.868Z,100.00
2022-12-18T17:52:32.026Z,100.00
2022-12-18T17:55:34.506Z,100.00
2022-12-18T17:58:37.226Z,100.00
2022-12-18T18:01:44.749Z,100.00
2022-12-18T18:04:47.929Z,100.00
2022-12-18T18:07:50.081Z,100.00
2022-12-18T18:10:55.044Z,100.00
2022-12-18T18:14:01.000Z,100.00
2022-12-18T18:17:04.816Z,100.00
2022-12-18T18:20:07.801Z,100.00
2022-12-18T18:23:10.183Z,100.00
2022-12-18T18:26:12.383Z,100.00
2022-12-18T18:29:17.487Z,100.00
2022-12-18T18:32:21.034Z,100.00
2022-12-18T18:35:52.253Z,100.00
2022-12-18T18:38:48.569Z,100.00
2022-12-18T18:41:51.256Z,100.00
2022-12-18T18:44:53.342Z,100.00
2022-12-18T18:47:56.191Z,100.00
2022-12-18T18:51:00.709Z,100.00
2022-12-18T18:54:03.134Z,100.00
2022-12-18T18:57:20.265Z,100.00
2022-12-18T19:00:23.426Z,100.00
2022-12-18T19:03:27.172Z,100.00
2022-12-18T19:06:29.975Z,100.00
2022-12-18T19:09:33.706Z,100.00
2022-12-18T19:12:54.654Z,100.00
2022-12-18T19:16:08.032Z,100.00
2022-12-18T19:19:13.320Z,100.00
2022-12-18T19:22:15.877Z,100.00
2022-12-18T19:25:18.734Z,100.00
2022-12-18T19:28:25.965Z,100.00
2022-12-18T19:31:34.769Z,100.00
2022-12-18T19:34:38.062Z,100.00
2022-12-18T19:37:40.782Z,100.00
2022-12-18T19:40:44.488Z,100.00
2022-12-18T19:43:47.604Z,100.00
2022-12-18T19:46:51.460Z,100.00
2022-12-18T19:49:53.917Z,100.00
2022-12-18T19:52:56.177Z,100.00
2022-12-18T19:55:58.659Z,100.00
2022-12-18T19:59:01.520Z,100.00
2022-12-18T20:02:04.152Z,100.00
2022-12-18T20:05:09.500Z,100.00
2022-12-18T20:08:11.899Z,100.00
2022-12-18T20:11:14.325Z,100.00
2022-12-18T20:14:18.756Z,100.00
2022-12-18T20:17:25.825Z,100.00
2022-12-18T20:20:28.181Z,100.00
2022-12-18T20:23:31.264Z,100.00
2022-12-18T20:26:35.388Z,100.00
2022-12-18T20:29:37.912Z,100.00
2022-12-18T20:32:40.069Z,100.00
2022-12-18T20:35:43.143Z,100.00
2022-12-18T20:38:46.135Z,100.00
2022-12-18T20:41:50.945Z,100.00
2022-12-18T20:44:53.099Z,100.00
2022-12-18T20:47:55.596Z,100.00
2022-12-18T20:51:07.251Z,100.00
2022-12-18T20:54:11.925Z,100.00
2022-12-18T20:57:14.319Z,100.00
2022-12-18T21:00:18.975Z,100.00
2022-12-18T21:03:23.506Z,100.00
2022-12-18T21:06:26.472Z,100.00
2022-12-18T21:09:35.934Z,100.00
2022-12-18T21:12:56.148Z,100.00
2022-12-18T21:16:05.173Z,100.00
2022-12-18T21:19:11.263Z,100.00
2022-12-18T21:22:13.598Z,100.00
2022-12-18T21:25:16.577Z,100.00
2022-12-18T21:28:18.781Z,100.00
2022-12-18T21:31:23.388Z,100.00
2022-12-18T21:34:28.519Z,100.00
2022-12-18T21:37:30.969Z,100.00
2022-12-18T21:40:33.076Z,100.00
2022-12-18T21:43:57.838Z,100.00
2022-12-18T21:47:09.396Z,100.00
2022-12-18T21:50:17.128Z,100.00
2022-12-18T21:53:19.264Z,100.00
2022-12-18T21:56:21.786Z,100.00
2022-12-18T21:59:23.930Z,100.00
2022-12-18T22:02:26.685Z,100.00
2022-12-18T22:05:29.497Z,100.00
2022-12-18T22:08:31.616Z,100.00
2022-12-18T22:11:34.093Z,100.00
2022-12-18T22:14:36.295Z,100.00
2022-12-18T22:17:39.470Z,100.00
2022-12-18T22:20:41.928Z,100.00
2022-12-18T22:23:44.328Z,100.00
2022-12-18T22:26:47.273Z,100.00
2022-12-18T22:30:04.930Z,100.00
2022-12-18T22:33:07.019Z,100.00
2022-12-18T22:36:09.579Z,100.00
2022-12-18T22:39:15.377Z,100.00
2022-12-18T22:42:17.860Z,100.00
2022-12-18T22:45:20.533Z,100.00
2022-12-18T22:48:22.973Z,100.00
2022-12-18T22:51:25.529Z,100.00
2022-12-18T22:54:27.960Z,100.00
2022-12-18T22:57:30.117Z,100.00
2022-12-18T23:00:32.996Z,100.00
2022-12-18T23:03:35.910Z,100.00
2022-12-18T23:06:40.262Z,100.00
2022-12-18T23:09:42.413Z,100.00
2022-12-18T23:12:44.764Z,100.00
2022-12-18T23:15:47.445Z,100.00
2022-12-18T23:18:55.322Z,100.00
2022-12-18T23:21:58.734Z,100.00
2022-12-18T23:25:01.158Z,100.00
2022-12-18T23:28:03.909Z,100.00
2022-12-18T23:31:12.256Z,100.00
2022-12-18T23:34:17.988Z,100.00
2022-12-18T23:37:42.340Z,100.00
2022-12-18T23:40:42.874Z,100.00
2022-12-18T23:43:47.608Z,100.00
2022-12-18T23:46:50.614Z,100.00
2022-12-18T23:49:53.111Z,100.00
2022-12-18T23:52:55.504Z,100.00
2022-12-18T23:55:59.683Z,100.00
2022-12-18T23:59:01.850Z,100.00
